createdAt,value
2022-12-18T00:00:50.333Z,-7.80
2022-12-18T00:03:20.328Z,-7.80
2022-12-18T00:05:49.504Z,-7.70
2022-12-18T00:08:19.896Z,-7.70
2022-12-18T00:10:50.775Z,-7.70
2022-12-18T00:13:20.534Z,-7.70
2022-12-18T00:15:50.398Z,-7.60
2022-12-18T00:18:21.713Z,-7.60
2022-12-18T00:20:51.510Z,-7.60
2022-12-18T00:23:21.235Z,-7.60
2022-12-18T00:25:52.343Z,-7.60
2022-12-18T00:28:22.156Z,-7.60
2022-12-18T00:30:53.388Z,-7.60
2022-12-18T00:33:23.138Z,-7.60
2022-12-18T00:35:52.917Z,-7.60
2022-12-18T00:38:22.614Z,-7.70
2022-12-18T00:40:53.475Z,-7.70
2022-12-18T00:43:24.056Z,-7.70
2022-12-18T00:45:54.205Z,-7.70
2022-12-18T00:48:24.435Z,-7.70
2022-12-18T00:50:54.652Z,-7.70
2022-12-18T00:53:24.819Z,-7.80
2022-12-18T00:55:55.978Z,-7.70
2022-12-18T00:58:25.830Z,-7.70
2022-12-18T01:00:55.738Z,-7.70
2022-12-18T01:03:25.589Z,-7.80
2022-12-18T01:05:55.352Z,-7.80
2022-12-18T01:08:23.199Z,-7.80
2022-12-18T01:10:53.158Z,-7.80
2022-12-18T01:13:24.246Z,-7.80
2022-12-18T01:15:54.780Z,-7.80
2022-12-18T01:18:24.542Z,-7.80
2022-12-18T01:20:54.345Z,-7.80
2022-12-18T01:23:24.159Z,-7.80
2022-12-18T01:25:54.019Z,-7.70
2022-12-18T01:28:25.107Z,-7.70
2022-12-18T01:30:56.651Z,-7.70
2022-12-18T01:33:26.800Z,-7.70
2022-12-18T01:35:56.302Z,-7.70
2022-12-18T01:38:26.130Z,-7.70
2022-12-18T01:41:00.910Z,-7.70
2022-12-18T01:43:49.616Z,-7.70
2022-12-18T01:46:20.460Z,-7.70
2022-12-18T01:48:52.663Z,-7.70
2022-12-18T01:51:22.713Z,-7.80
2022-12-18T01:53:53.151Z,-7.80
2022-12-18T01:56:24.799Z,-7.80
2022-12-18T01:59:00.941Z,-7.90
2022-12-18T02:01:32.376Z,-7.90
2022-12-18T02:04:23.566Z,-8.00
2022-12-18T02:06:57.426Z,-8.00
2022-12-18T02:09:33.787Z,-8.00
2022-12-18T02:12:12.876Z,-8.00
2022-12-18T02:14:54.240Z,-7.90
2022-12-18T02:17:31.214Z,-7.90
2022-12-18T02:20:10.433Z,-7.90
2022-12-18T02:22:46.779Z,-7.90
2022-12-18T02:25:26.689Z,-7.90
2022-12-18T02:28:01.396Z,-7.80
2022-12-18T02:30:33.887Z,-7.80
2022-12-18T02:33:06.794Z,-7.80
2022-12-18T02:35:38.456Z,-7.80
2022-12-18T02:38:08.696Z,-7.70
2022-12-18T02:40:40.575Z,-7.70
2022-12-18T02:43:16.878Z,-7.80
2022-12-18T02:45:55.850Z,-7.80
2022-12-18T02:48:32.854Z,-7.80
2022-12-18T02:51:10.337Z,-7.80
2022-12-18T02:53:46.624Z,-7.70
2022-12-18T02:56:21.342Z,-7.70
2022-12-18T02:59:00.893Z,-7.70
2022-12-18T03:01:38.642Z,-7.70
2022-12-18T03:04:13.847Z,-7.70
2022-12-18T03:06:47.100Z,-7.70
2022-12-18T03:09:21.390Z,-7.70
2022-12-18T03:12:13.043Z,-7.70
2022-12-18T03:14:46.899Z,-7.70
2022-12-18T03:17:22.294Z,-7.70
2022-12-18T03:19:53.692Z,-7.70
2022-12-18T03:22:25.164Z,-7.70
2022-12-18T03:24:58.257Z,-7.80
2022-12-18T03:27:30.668Z,-7.80
2022-12-18T03:30:08.220Z,-7.80
2022-12-18T03:32:42.418Z,-7.80
2022-12-18T03:35:19.661Z,-7.80
2022-12-18T03:37:49.488Z,-7.70
2022-12-18T03:40:19.671Z,-7.70
2022-12-18T03:42:54.397Z,-7.50
2022-12-18T03:45:29.085Z,-7.50
2022-12-18T03:48:03.259Z,-7.50
2022-12-18T03:50:39.195Z,-7.50
2022-12-18T03:53:19.181Z,-7.40
2022-12-18T03:55:50.029Z,-7.40
2022-12-18T03:58:24.958Z,-7.40
2022-12-18T04:00:58.628Z,-7.30
2022-12-18T04:03:30.302Z,-7.30
2022-12-18T04:06:02.415Z,-7.30
2022-12-18T04:08:34.146Z,-7.30
2022-12-18T04:11:04.701Z,-7.30
2022-12-18T04:13:38.595Z,-7.30
2022-12-18T04:16:11.312Z,-7.20
2022-12-18T04:18:41.139Z,-7.20
2022-12-18T04:21:12.410Z,-7.10
2022-12-18T04:23:42.352Z,-7.10
2022-12-18T04:26:12.730Z,-7.20
2022-12-18T04:28:42.556Z,-7.20
2022-12-18T04:31:13.464Z,-7.20
2022-12-18T04:33:43.479Z,-7.20
2022-12-18T04:36:13.962Z,-7.20
2022-12-18T04:38:43.839Z,-7.20
2022-12-18T04:41:13.575Z,-7.20
2022-12-18T04:43:43.426Z,-7.10
2022-12-18T04:46:14.383Z,-7.20
2022-12-18T04:48:44.210Z,-7.20
2022-12-18T04:51:14.148Z,-7.30
2022-12-18T04:53:44.091Z,-7.30
2022-12-18T04:56:15.389Z,-7.30
2022-12-18T04:58:46.687Z,-7.30
2022-12-18T05:01:19.196Z,-7.40
2022-12-18T05:03:48.896Z,-7.50
2022-12-18T05:06:18.740Z,-7.50
2022-12-18T05:08:48.607Z,-7.40
2022-12-18T05:11:20.338Z,-7.40
2022-12-18T05:13:50.048Z,-7.40
2022-12-18T05:16:21.247Z,-7.40
2022-12-18T05:18:51.025Z,-7.50
2022-12-18T05:21:20.784Z,-7.50
2022-12-18T05:23:50.688Z,-7.50
2022-12-18T05:26:21.010Z,-7.50
2022-12-18T05:28:50.861Z,-7.40
2022-12-18T05:31:23.355Z,-7.30
2022-12-18T05:33:53.156Z,-7.40
2022-12-18T05:36:23.028Z,-7.50
2022-12-18T05:38:52.876Z,-7.50
2022-12-18T05:41:23.155Z,-7.60
2022-12-18T05:43:52.871Z,-7.50
2022-12-18T05:46:25.258Z,-7.50
2022-12-18T05:48:55.432Z,-7.50
2022-12-18T05:51:26.163Z,-7.50
2022-12-18T05:53:54.236Z,-7.40
2022-12-18T05:56:25.091Z,-7.40
2022-12-18T05:58:56.532Z,-7.40
2022-12-18T06:01:28.434Z,-7.40
2022-12-18T06:03:59.153Z,-7.40
2022-12-18T06:06:30.013Z,-7.20
2022-12-18T06:09:02.188Z,-7.10
2022-12-18T06:11:31.768Z,-7.20
2022-12-18T06:14:01.554Z,-7.20
2022-12-18T06:16:32.994Z,-7.00
2022-12-18T06:19:04.360Z,-7.10
2022-12-18T06:21:34.543Z,-7.10
2022-12-18T06:24:04.985Z,-7.00
2022-12-18T06:26:34.741Z,-7.10
2022-12-18T06:29:04.458Z,-7.10
2022-12-18T06:31:35.649Z,-7.10
2022-12-18T06:34:05.094Z,-7.10
2022-12-18T06:36:35.186Z,-7.00
2022-12-18T06:39:04.786Z,-7.00
2022-12-18T06:41:34.535Z,-7.10
2022-12-18T06:44:04.298Z,-7.10
2022-12-18T06:46:35.183Z,-7.20
2022-12-18T06:49:05.017Z,-7.20
2022-12-18T06:51:35.045Z,-7.20
2022-12-18T06:54:04.843Z,-7.20
2022-12-18T06:56:35.122Z,-7.20
2022-12-18T06:59:05.042Z,-7.20
2022-12-18T07:01:36.295Z,-7.20
2022-12-18T07:04:06.445Z,-7.10
2022-12-18T07:06:36.458Z,-7.00
2022-12-18T07:09:06.138Z,-7.10
2022-12-18T07:11:36.528Z,-7.10
2022-12-18T07:14:06.390Z,-7.10
2022-12-18T07:16:37.575Z,-7.00
2022-12-18T07:19:07.376Z,-7.00
2022-12-18T07:21:37.255Z,-7.00
2022-12-18T07:24:08.127Z,-7.00
2022-12-18T07:26:37.948Z,-7.10
2022-12-18T07:29:07.855Z,-7.10
2022-12-18T07:31:39.042Z,-7.10
2022-12-18T07:34:11.494Z,-7.10
2022-12-18T07:36:41.317Z,-7.00
2022-12-18T07:39:12.373Z,-7.00
2022-12-18T07:41:47.069Z,-7.00
2022-12-18T07:44:17.271Z,-7.00
2022-12-18T07:46:48.360Z,-7.00
2022-12-18T07:49:20.755Z,-6.90
2022-12-18T07:51:50.659Z,-6.90
2022-12-18T07:54:20.431Z,-7.00
2022-12-18T07:56:50.151Z,-7.00
2022-12-18T07:59:20.264Z,-6.90
2022-12-18T08:01:51.558Z,-6.90
2022-12-18T08:04:21.603Z,-6.90
2022-12-18T08:06:51.343Z,-6.90
2022-12-18T08:09:21.123Z,-6.90
2022-12-18T08:11:51.015Z,-6.80
2022-12-18T08:14:20.603Z,-6.80
2022-12-18T08:16:51.758Z,-6.80
2022-12-18T08:19:21.469Z,-6.80
2022-12-18T08:21:51.337Z,-6.70
2022-12-18T08:24:21.316Z,-6.70
2022-12-18T08:27:06.663Z,-6.60
2022-12-18T08:29:41.885Z,-6.60
2022-12-18T08:32:13.108Z,-6.40
2022-12-18T08:34:42.724Z,-6.30
2022-12-18T08:37:12.452Z,-6.20
2022-12-18T08:39:42.270Z,-6.10
2022-12-18T08:42:29.562Z,-6.10
2022-12-18T08:44:59.598Z,-6.00
2022-12-18T08:47:30.494Z,-5.90
2022-12-18T08:50:01.069Z,-5.80
2022-12-18T08:52:38.206Z,-5.70
2022-12-18T08:55:09.645Z,-5.70
2022-12-18T08:57:39.364Z,-5.60
2022-12-18T09:00:17.569Z,-5.50
2022-12-18T09:02:48.914Z,-5.40
2022-12-18T09:05:19.380Z,-5.30
2022-12-18T09:07:58.593Z,-5.30
2022-12-18T09:10:28.364Z,-5.40
2022-12-18T09:12:58.080Z,-5.40
2022-12-18T09:15:27.691Z,-5.40
2022-12-18T09:17:58.927Z,-5.30
2022-12-18T09:20:30.837Z,-5.30
2022-12-18T09:23:01.723Z,-5.20
2022-12-18T09:25:34.045Z,-5.10
2022-12-18T09:28:03.899Z,-5.10
2022-12-18T09:30:36.267Z,-5.10
2022-12-18T09:33:09.149Z,-5.00
2022-12-18T09:35:41.617Z,-4.90
2022-12-18T09:38:14.022Z,-4.80
2022-12-18T09:40:46.268Z,-4.60
2022-12-18T09:43:20.474Z,-4.50
2022-12-18T09:45:54.414Z,-4.30
2022-12-18T09:48:30.382Z,-4.30
2022-12-18T09:51:06.048Z,-4.20
2022-12-18T09:53:40.071Z,-3.90
2022-12-18T09:56:14.165Z,-3.90
2022-12-18T09:58:51.045Z,-4.10
2022-12-18T10:01:23.668Z,-3.80
2022-12-18T10:03:55.800Z,-3.70
2022-12-18T10:06:30.138Z,-3.60
2022-12-18T10:09:11.448Z,-3.50
2022-12-18T10:11:52.861Z,-3.50
2022-12-18T10:14:30.497Z,-3.20
2022-12-18T10:17:09.892Z,-3.10
2022-12-18T10:19:52.164Z,-3.20
2022-12-18T10:22:41.308Z,-3.00
2022-12-18T10:25:21.351Z,-3.00
2022-12-18T10:27:53.669Z,-3.00
2022-12-18T10:30:32.381Z,-3.10
2022-12-18T10:33:05.424Z,-3.10
2022-12-18T10:35:37.901Z,-2.90
2022-12-18T10:38:10.410Z,-2.80
2022-12-18T10:40:53.765Z,-2.90
2022-12-18T10:43:26.039Z,-3.10
2022-12-18T10:46:03.713Z,-3.10
2022-12-18T10:48:39.005Z,-3.30
2022-12-18T10:51:13.089Z,-3.40
2022-12-18T10:53:44.658Z,-3.70
2022-12-18T10:56:23.259Z,-3.80
2022-12-18T10:58:59.394Z,-3.70
2022-12-18T11:01:30.059Z,-3.90
2022-12-18T11:04:10.607Z,-3.90
2022-12-18T11:06:58.799Z,-4.00
2022-12-18T11:09:30.526Z,-4.10
2022-12-18T11:12:02.407Z,-3.90
2022-12-18T11:14:35.054Z,-3.90
2022-12-18T11:19:59.881Z,-4.00
2022-12-18T11:22:32.722Z,-4.10
2022-12-18T11:27:59.025Z,-4.10
2022-12-18T11:30:31.336Z,-4.00
2022-12-18T11:33:05.005Z,-4.00
2022-12-18T11:35:40.460Z,-4.00
2022-12-18T11:38:28.849Z,-3.90
2022-12-18T11:41:02.277Z,-3.80
2022-12-18T11:43:36.808Z,-4.00
2022-12-18T11:46:19.138Z,-3.90
2022-12-18T11:48:56.471Z,-3.90
2022-12-18T11:51:35.358Z,-3.80
2022-12-18T11:54:14.432Z,-3.90
2022-12-18T11:56:50.143Z,-3.80
2022-12-18T11:59:27.632Z,-3.60
2022-12-18T12:02:05.449Z,-3.60
2022-12-18T12:05:03.205Z,-3.50
2022-12-18T12:07:45.873Z,-3.40
2022-12-18T12:10:30.849Z,-3.30
2022-12-18T12:13:14.881Z,-3.20
2022-12-18T12:15:58.346Z,-3.50
2022-12-18T12:18:37.563Z,-3.80
2022-12-18T12:21:15.407Z,-3.80
2022-12-18T12:23:52.831Z,-3.80
2022-12-18T12:26:30.855Z,-3.80
2022-12-18T12:29:10.613Z,-3.90
2022-12-18T12:31:57.481Z,-3.90
2022-12-18T12:34:36.304Z,-4.00
2022-12-18T12:37:17.865Z,-4.00
2022-12-18T12:39:49.101Z,-3.90
2022-12-18T12:42:43.882Z,-4.00
2022-12-18T12:45:27.197Z,-3.90
2022-12-18T12:47:59.885Z,-3.80
2022-12-18T12:50:35.876Z,-3.90
2022-12-18T12:53:11.937Z,-3.80
2022-12-18T12:55:42.998Z,-3.80
2022-12-18T12:58:22.283Z,-3.80
2022-12-18T13:01:03.543Z,-3.90
2022-12-18T13:03:44.457Z,-3.70
2022-12-18T13:06:21.744Z,-3.60
2022-12-18T13:09:00.732Z,-3.80
2022-12-18T13:11:59.472Z,-3.90
2022-12-18T13:14:38.729Z,-4.00
2022-12-18T13:17:32.874Z,-4.00
2022-12-18T13:20:18.300Z,-4.10
2022-12-18T13:22:56.945Z,-4.10
2022-12-18T13:25:35.084Z,-4.10
2022-12-18T13:28:12.705Z,-4.00
2022-12-18T13:30:55.589Z,-4.00
2022-12-18T13:34:09.506Z,-3.90
2022-12-18T13:36:35.290Z,-4.00
2022-12-18T13:39:31.427Z,-4.00
2022-12-18T13:42:57.507Z,-4.00
2022-12-18T13:45:49.433Z,-4.00
2022-12-18T13:48:21.220Z,-4.10
2022-12-18T13:50:55.076Z,-4.10
2022-12-18T13:53:37.877Z,-4.00
2022-12-18T13:56:08.917Z,-4.00
2022-12-18T13:58:38.937Z,-4.00
2022-12-18T14:01:23.963Z,-4.00
2022-12-18T14:04:11.880Z,-4.00
2022-12-18T14:06:42.739Z,-3.80
2022-12-18T14:09:20.282Z,-3.90
2022-12-18T14:11:52.287Z,-3.90
2022-12-18T14:14:29.455Z,-3.90
2022-12-18T14:17:15.899Z,-3.90
2022-12-18T14:19:52.856Z,-3.80
2022-12-18T14:22:39.555Z,-3.80
2022-12-18T14:25:16.470Z,-3.80
2022-12-18T14:27:48.258Z,-3.80
2022-12-18T14:30:31.669Z,-3.80
2022-12-18T14:33:07.791Z,-3.80
2022-12-18T14:35:40.375Z,-3.80
2022-12-18T14:38:24.138Z,-3.90
2022-12-18T14:40:55.631Z,-3.80
2022-12-18T14:43:28.365Z,-3.80
2022-12-18T14:45:58.560Z,-3.80
2022-12-18T14:48:36.756Z,-3.80
2022-12-18T14:51:16.170Z,-3.70
2022-12-18T14:53:54.310Z,-3.80
2022-12-18T14:56:28.116Z,-3.80
2022-12-18T14:59:03.955Z,-3.80
2022-12-18T15:01:36.942Z,-3.90
2022-12-18T15:04:22.074Z,-3.90
2022-12-18T15:07:04.387Z,-3.90
2022-12-18T15:09:34.475Z,-3.80
2022-12-18T15:12:05.146Z,-3.80
2022-12-18T15:14:40.776Z,-3.90
2022-12-18T15:17:18.610Z,-3.90
2022-12-18T15:19:53.765Z,-3.80
2022-12-18T15:22:25.223Z,-3.80
2022-12-18T15:24:55.777Z,-3.90
2022-12-18T15:27:40.726Z,-3.90
2022-12-18T15:30:29.410Z,-3.90
2022-12-18T15:33:19.052Z,-3.90
2022-12-18T15:35:59.280Z,-3.90
2022-12-18T15:38:29.471Z,-3.90
2022-12-18T15:40:59.608Z,-3.90
2022-12-18T15:43:38.029Z,-3.90
2022-12-18T15:46:11.124Z,-3.90
2022-12-18T15:48:46.017Z,-3.90
2022-12-18T15:51:20.969Z,-3.90
2022-12-18T15:53:52.464Z,-3.80
2022-12-18T15:56:42.621Z,-3.80
2022-12-18T15:59:15.470Z,-3.80
2022-12-18T16:01:47.025Z,-3.80
2022-12-18T16:04:20.965Z,-3.80
2022-12-18T16:07:14.798Z,-3.80
2022-12-18T16:09:42.796Z,-3.80
2022-12-18T16:12:18.290Z,-3.80
2022-12-18T16:14:48.571Z,-3.80
2022-12-18T16:17:18.638Z,-3.80
2022-12-18T16:19:48.510Z,-3.80
2022-12-18T16:22:23.777Z,-3.70
2022-12-18T16:24:54.272Z,-3.60
2022-12-18T16:27:25.360Z,-3.70
2022-12-18T16:29:55.147Z,-3.70
2022-12-18T16:32:26.829Z,-3.60
2022-12-18T16:35:01.234Z,-3.70
2022-12-18T16:37:32.293Z,-3.70
2022-12-18T16:40:02.078Z,-3.70
2022-12-18T16:42:31.864Z,-3.70
2022-12-18T16:45:01.640Z,-3.60
2022-12-18T16:47:31.426Z,-3.50
2022-12-18T16:50:01.332Z,-3.50
2022-12-18T16:52:32.335Z,-3.60
2022-12-18T16:55:01.889Z,-3.60
2022-12-18T16:57:31.729Z,-3.70
2022-12-18T17:00:05.684Z,-3.70
2022-12-18T17:02:35.980Z,-3.70
2022-12-18T17:05:05.702Z,-3.70
2022-12-18T17:07:36.976Z,-3.80
2022-12-18T17:10:08.342Z,-3.80
2022-12-18T17:12:39.617Z,-3.70
2022-12-18T17:15:10.970Z,-3.70
2022-12-18T17:17:40.742Z,-3.70
2022-12-18T17:20:11.881Z,-3.70
2022-12-18T17:22:43.102Z,-3.70
2022-12-18T17:25:13.073Z,-3.70
2022-12-18T17:27:42.862Z,-3.60
2022-12-18T17:30:15.130Z,-3.60
2022-12-18T17:32:44.904Z,-3.60
2022-12-18T17:35:14.654Z,-3.50
2022-12-18T17:37:43.950Z,-3.50
2022-12-18T17:40:14.586Z,-3.50
2022-12-18T17:42:44.433Z,-3.50
2022-12-18T17:45:14.211Z,-3.50
2022-12-18T17:47:43.912Z,-3.50
2022-12-18T17:50:13.983Z,-3.40
2022-12-18T17:52:48.461Z,-3.50
2022-12-18T17:55:18.435Z,-3.50
2022-12-18T17:57:48.083Z,-3.50
2022-12-18T18:00:20.033Z,-3.50
2022-12-18T18:02:50.027Z,-3.60
2022-12-18T18:05:20.066Z,-3.70
2022-12-18T18:07:52.192Z,-3.70
2022-12-18T18:10:23.052Z,-3.80
2022-12-18T18:13:12.886Z,-3.70
2022-12-18T18:15:44.243Z,-3.70
2022-12-18T18:18:13.974Z,-3.70
2022-12-18T18:20:45.809Z,-3.70
2022-12-18T18:23:16.928Z,-3.60
2022-12-18T18:25:47.278Z,-3.70
2022-12-18T18:28:17.141Z,-3.70
2022-12-18T18:30:46.899Z,-3.60
2022-12-18T18:33:16.817Z,-3.70
2022-12-18T18:35:54.867Z,-3.70
2022-12-18T18:38:26.298Z,-3.70
2022-12-18T18:41:00.016Z,-3.60
2022-12-18T18:43:30.201Z,-3.60
2022-12-18T18:46:01.169Z,-3.50
2022-12-18T18:48:32.316Z,-3.50
2022-12-18T18:51:04.570Z,-3.50
2022-12-18T18:53:39.951Z,-3.50
2022-12-18T18:56:45.331Z,-3.40
2022-12-18T18:59:01.234Z,-3.40
2022-12-18T19:01:31.017Z,-3.30
2022-12-18T19:04:01.600Z,-3.30
2022-12-18T19:06:31.641Z,-3.30
2022-12-18T19:09:06.641Z,-3.30
2022-12-18T19:11:54.471Z,-3.50
2022-12-18T19:14:24.340Z,-3.60
2022-12-18T19:16:54.219Z,-3.60
2022-12-18T19:19:25.187Z,-3.60
2022-12-18T19:21:54.753Z,-3.70
2022-12-18T19:24:25.924Z,-3.70
2022-12-18T19:26:56.663Z,-3.70
2022-12-18T19:29:34.638Z,-3.60
2022-12-18T19:32:06.754Z,-3.60
2022-12-18T19:34:36.557Z,-3.60
2022-12-18T19:37:09.186Z,-3.70
2022-12-18T19:39:44.670Z,-3.70
2022-12-18T19:42:14.387Z,-3.70
2022-12-18T19:44:44.135Z,-3.60
2022-12-18T19:47:16.561Z,-3.60
2022-12-18T19:49:46.457Z,-3.60
2022-12-18T19:52:16.160Z,-3.50
2022-12-18T19:54:58.725Z,-3.40
2022-12-18T19:57:30.515Z,-3.40
2022-12-18T20:00:00.235Z,-3.40
2022-12-18T20:02:31.090Z,-3.30
2022-12-18T20:05:01.043Z,-3.20
2022-12-18T20:07:32.828Z,-3.20
2022-12-18T20:10:08.903Z,-3.20
2022-12-18T20:12:39.243Z,-3.20
2022-12-18T20:15:11.005Z,-3.10
2022-12-18T20:17:45.582Z,-3.10
2022-12-18T20:20:15.741Z,-3.10
2022-12-18T20:22:45.492Z,-3.10
2022-12-18T20:25:17.974Z,-3.00
2022-12-18T20:27:49.245Z,-3.00
2022-12-18T20:30:19.068Z,-3.00
2022-12-18T20:32:48.906Z,-3.00
2022-12-18T20:35:19.932Z,-2.90
2022-12-18T20:37:49.894Z,-2.80
2022-12-18T20:40:21.845Z,-2.90
2022-12-18T20:42:52.168Z,-2.80
2022-12-18T20:45:28.950Z,-2.90
2022-12-18T20:48:00.807Z,-2.90
2022-12-18T20:50:30.855Z,-2.80
2022-12-18T20:53:03.770Z,-2.90
2022-12-18T20:55:34.866Z,-3.10
2022-12-18T20:58:04.838Z,-3.00
2022-12-18T21:00:34.660Z,-3.00
2022-12-18T21:03:04.844Z,-3.00
2022-12-18T21:05:34.759Z,-3.00
2022-12-18T21:08:06.655Z,-3.00
2022-12-18T21:10:44.792Z,-3.00
2022-12-18T21:13:17.235Z,-3.20
2022-12-18T21:15:48.256Z,-3.20
2022-12-18T21:18:18.338Z,-3.20
2022-12-18T21:20:48.300Z,-3.10
2022-12-18T21:23:18.536Z,-3.00
2022-12-18T21:25:55.524Z,-3.00
2022-12-18T21:28:25.655Z,-3.00
2022-12-18T21:31:02.815Z,-3.00
2022-12-18T21:33:33.697Z,-2.90
2022-12-18T21:36:07.019Z,-2.90
2022-12-18T21:38:38.505Z,-2.90
2022-12-18T21:41:41.713Z,-2.90
2022-12-18T21:44:15.254Z,-2.90
2022-12-18T21:46:55.656Z,-3.00
2022-12-18T21:49:27.935Z,-3.00
2022-12-18T21:51:59.545Z,-3.00
2022-12-18T21:54:30.638Z,-2.90
2022-12-18T21:57:10.808Z,-2.90
2022-12-18T21:59:42.270Z,-2.90
2022-12-18T22:02:16.279Z,-2.90
2022-12-18T22:04:47.005Z,-2.90
2022-12-18T22:07:17.806Z,-2.90
2022-12-18T22:09:48.252Z,-3.00
2022-12-18T22:12:35.336Z,-3.00
2022-12-18T22:15:06.227Z,-2.90
2022-12-18T22:17:35.887Z,-2.90
2022-12-18T22:20:05.858Z,-2.80
2022-12-18T22:22:35.534Z,-2.90
2022-12-18T22:25:13.023Z,-2.90
2022-12-18T22:28:04.193Z,-2.90
2022-12-18T22:30:34.582Z,-2.90
2022-12-18T22:33:04.256Z,-2.80
2022-12-18T22:35:33.826Z,-2.80
2022-12-18T22:38:04.192Z,-2.80
2022-12-18T22:40:35.085Z,-2.80
2022-12-18T22:43:10.982Z,-2.80
2022-12-18T22:45:42.196Z,-2.90
2022-12-18T22:48:11.964Z,-2.80
2022-12-18T22:50:42.784Z,-2.90
2022-12-18T22:53:12.560Z,-2.80
2022-12-18T22:55:42.413Z,-2.80
2022-12-18T22:58:13.615Z,-2.80
2022-12-18T23:00:43.367Z,-2.70
2022-12-18T23:03:13.261Z,-2.90
2022-12-18T23:05:42.892Z,-2.90
2022-12-18T23:08:13.761Z,-2.90
2022-12-18T23:10:46.338Z,-3.00
2022-12-18T23:13:17.225Z,-3.10
2022-12-18T23:15:47.292Z,-3.00
2022-12-18T23:18:17.004Z,-3.00
2022-12-18T23:20:46.785Z,-2.90
2022-12-18T23:23:17.262Z,-2.90
2022-12-18T23:25:49.893Z,-2.90
2022-12-18T23:28:20.777Z,-2.90
2022-12-18T23:30:52.839Z,-2.80
2022-12-18T23:33:22.403Z,-2.80
2022-12-18T23:35:52.102Z,-2.80
2022-12-18T23:38:21.891Z,-2.80
2022-12-18T23:40:51.508Z,-2.80
2022-12-18T23:43:34.461Z,-2.80
2022-12-18T23:46:04.057Z,-2.70
2022-12-18T23:48:39.576Z,-2.70
2022-12-18T23:51:12.018Z,-2.70
2022-12-18T23:53:42.309Z,-2.70
2022-12-18T23:56:13.712Z,-2.70
2022-12-18T23:58:49.556Z,-2.70
